Terminal Aerodrome Forecast
Issued by NWS Dodge City, KS

Home | Current Version | Previous Version | Graphics & Text | Print | Product List | Glossary Off
Versions: 1 2 3 4 5 6 7 8 9 10 11 12 13 14 15 16 17 18

000
FTUS43 KDDC 241720
TAFDDC
TAF
KDDC 241720Z 2418/2518 03009KT P6SM OVC100
     FM250300 05007KT P6SM BKN200 PROB30 2503/2506 4SM -TSRA
      OVC040CB
     FM250600 02010KT P6SM OVC090 PROB30 2506/2509 4SM -TSRA
      OVC040CB
     FM250900 03005KT P6SM OVC035 PROB30 2509/2510 4SM -TSRA
      OVC025CB
     FM251400 02007KT P6SM OVC015=

USA.gov is the U.S. government's official web portal to all federal, state and local government web resources and services.